createdAt,value
2024-02-29T00:00:17.037Z,2.7
2024-02-29T00:05:17.151Z,1.9
2024-02-29T00:10:17.327Z,2.3
2024-02-29T00:15:17.364Z,2.4
2024-02-29T00:20:17.443Z,2.2
2024-02-29T00:25:17.593Z,1.7
2024-02-29T00:30:17.685Z,2.7
2024-02-29T00:35:17.822Z,1.9
2024-02-29T00:40:17.959Z,2.4
2024-02-29T00:45:18.020Z,1.9
2024-02-29T01:00:18.322Z,2.0
2024-02-29T01:05:18.393Z,1.5
2024-02-29T01:10:18.519Z,1.4
2024-02-29T01:15:18.520Z,1.7
2024-02-29T01:20:18.585Z,2.2
2024-02-29T01:25:18.685Z,1.9
2024-02-29T01:30:18.767Z,1.3
2024-02-29T01:35:18.841Z,2.0
2024-02-29T01:40:19.023Z,1.0
2024-02-29T01:45:19.047Z,1.3
2024-02-29T01:50:19.098Z,1.6
2024-02-29T01:55:19.273Z,1.7
2024-02-29T02:00:19.227Z,1.6
2024-02-29T02:05:19.323Z,2.1
2024-02-29T02:10:19.488Z,1.5
2024-02-29T02:15:19.425Z,2.5
2024-02-29T02:20:19.537Z,2.6
2024-02-29T02:25:19.642Z,3.3
2024-02-29T02:30:19.675Z,2.4
2024-02-29T02:35:19.741Z,2.5
2024-02-29T02:40:19.879Z,2.4
2024-02-29T02:50:19.980Z,2.8
2024-02-29T02:55:20.116Z,2.1
2024-02-29T03:00:20.111Z,2.9
2024-02-29T03:05:22.699Z,3.8
2024-02-29T03:10:20.317Z,3.7
2024-02-29T03:15:20.372Z,2.2
2024-02-29T03:20:20.486Z,3.7
2024-02-29T03:25:20.669Z,2.7
2024-02-29T03:30:20.756Z,4.4
2024-02-29T03:35:20.877Z,3.6
2024-02-29T03:40:21.061Z,4.1
2024-02-29T03:45:21.153Z,4.2
2024-02-29T03:50:21.272Z,3.2
2024-02-29T04:00:21.478Z,3.5
2024-02-29T04:05:21.607Z,4.1
2024-02-29T04:10:21.794Z,3.2
2024-02-29T04:15:21.789Z,3.5
2024-02-29T04:20:21.862Z,3.4
2024-02-29T04:25:22.017Z,3.6
2024-02-29T04:30:22.053Z,2.9
2024-02-29T04:35:22.129Z,3.5
2024-02-29T04:40:22.281Z,3.6
2024-02-29T04:45:22.319Z,3.0
2024-02-29T04:50:24.378Z,2.8
2024-02-29T04:55:23.616Z,2.7
2024-02-29T05:00:22.493Z,3.4
2024-02-29T05:05:22.578Z,2.1
2024-02-29T05:10:22.665Z,1.8
2024-02-29T05:15:22.688Z,1.9
2024-02-29T05:20:22.740Z,1.0
2024-02-29T05:25:22.894Z,1.2
2024-02-29T05:30:22.806Z,1.1
2024-02-29T05:35:22.833Z,1.0
2024-02-29T05:40:22.990Z,0.9
2024-02-29T05:45:22.943Z,1.0
2024-02-29T05:50:22.936Z,1.6
2024-02-29T05:55:23.043Z,1.3
2024-02-29T06:00:23.032Z,1.1
2024-02-29T06:05:23.049Z,1.5
2024-02-29T06:10:25.678Z,1.6
2024-02-29T06:15:23.136Z,1.3
2024-02-29T06:20:23.177Z,1.8
2024-02-29T06:25:23.276Z,1.1
2024-02-29T06:30:23.268Z,1.9
2024-02-29T06:35:23.314Z,1.2
2024-02-29T06:40:23.495Z,1.3
2024-02-29T06:45:23.396Z,1.1
2024-02-29T06:50:23.446Z,1.3
2024-02-29T06:55:23.504Z,1.4
2024-02-29T07:00:23.520Z,2.3
2024-02-29T07:05:23.599Z,1.8
2024-02-29T07:10:23.764Z,1.4
2024-02-29T07:15:23.701Z,1.5
2024-02-29T07:20:26.599Z,1.1
2024-02-29T07:25:23.884Z,1.5
2024-02-29T07:30:23.990Z,1.0
2024-02-29T07:35:23.978Z,1.5
2024-02-29T07:45:24.079Z,0.9
2024-02-29T07:50:24.201Z,1.2
2024-02-29T07:55:24.231Z,1.0
2024-02-29T08:00:24.288Z,1.2
2024-02-29T08:05:24.345Z,1.3
2024-02-29T08:10:24.458Z,1.0
2024-02-29T08:15:24.414Z,1.2
2024-02-29T08:20:24.483Z,1.3
2024-02-29T08:25:24.573Z,1.0
2024-02-29T08:30:24.605Z,0.6
2024-02-29T08:35:27.084Z,0.7
2024-02-29T08:40:24.867Z,0.5
2024-02-29T08:45:24.815Z,1.0
2024-02-29T09:00:24.964Z,0.9
2024-02-29T09:15:25.060Z,1.6
2024-02-29T09:20:25.086Z,1.1
2024-02-29T09:25:25.089Z,0.9
2024-02-29T09:30:25.165Z,1.0
2024-02-29T09:35:25.232Z,1.3
2024-02-29T09:40:25.929Z,1.1
2024-02-29T09:45:25.889Z,1.3
2024-02-29T09:55:25.496Z,1.7
2024-02-29T10:05:25.590Z,3.1
2024-02-29T10:10:25.766Z,1.7
2024-02-29T10:15:25.751Z,1.6
2024-02-29T10:20:25.837Z,1.7
2024-02-29T10:25:26.091Z,1.4
2024-02-29T10:35:26.068Z,2.4
2024-02-29T10:40:26.274Z,1.6
2024-02-29T10:45:27.177Z,2.1
2024-02-29T10:50:26.316Z,2.0
2024-02-29T10:55:26.547Z,1.4
2024-02-29T11:05:26.626Z,2.0
2024-02-29T11:10:26.773Z,1.9
2024-02-29T11:15:27.234Z,2.0
2024-02-29T11:20:26.934Z,2.4
2024-02-29T11:25:27.196Z,3.5
2024-02-29T11:30:27.194Z,5.8
2024-02-29T11:35:27.356Z,2.2
2024-02-29T11:40:27.541Z,1.9
2024-02-29T11:45:27.597Z,2.4
2024-02-29T11:50:29.740Z,2.0
2024-02-29T11:55:27.852Z,2.7
2024-02-29T12:00:27.959Z,1.5
2024-02-29T12:05:28.100Z,0.9
2024-02-29T12:10:28.336Z,1.0
2024-02-29T12:15:28.334Z,2.2
2024-02-29T12:20:28.420Z,0.8
2024-02-29T12:25:28.667Z,1.4
2024-02-29T12:30:28.620Z,1.0
2024-02-29T12:35:28.598Z,1.7
2024-02-29T12:40:28.725Z,1.8
2024-02-29T12:45:28.652Z,1.5
2024-02-29T12:50:28.676Z,1.6
2024-02-29T12:55:28.780Z,1.9
2024-02-29T13:00:28.831Z,2.1
2024-02-29T13:05:28.940Z,1.5
2024-02-29T13:10:29.106Z,2.5
2024-02-29T13:15:29.179Z,1.9
2024-02-29T13:20:29.315Z,2.5
2024-02-29T13:25:29.570Z,2.4
2024-02-29T13:30:29.552Z,1.7
2024-02-29T13:35:29.651Z,2.1
2024-02-29T13:40:29.798Z,3.5
2024-02-29T13:45:29.762Z,3.0
2024-02-29T13:55:29.932Z,2.5
2024-02-29T14:00:29.998Z,3.5
2024-02-29T14:05:30.002Z,3.1
2024-02-29T14:10:30.152Z,2.5
2024-02-29T14:15:30.105Z,3.0
2024-02-29T14:20:30.066Z,2.4
2024-02-29T14:25:30.231Z,3.3
2024-02-29T14:30:30.074Z,2.3
2024-02-29T14:35:30.093Z,3.0
2024-02-29T14:40:30.148Z,2.9
2024-02-29T14:45:30.112Z,2.7
2024-02-29T14:50:30.144Z,3.0
2024-02-29T14:55:30.236Z,4.1
2024-02-29T15:00:30.232Z,2.5
2024-02-29T15:05:30.307Z,3.0
2024-02-29T15:10:30.469Z,5.6
2024-02-29T15:15:30.400Z,4.1
2024-02-29T15:20:30.459Z,3.6
2024-02-29T15:25:30.512Z,4.1
2024-02-29T15:30:30.553Z,3.8
2024-02-29T15:35:30.581Z,2.5
2024-02-29T15:40:30.731Z,3.2
2024-02-29T15:45:30.668Z,1.9
2024-02-29T15:50:30.662Z,2.4
2024-02-29T15:55:30.723Z,1.6
2024-02-29T16:00:30.700Z,2.0
2024-02-29T16:05:30.716Z,1.9
2024-02-29T16:10:30.871Z,1.8
2024-02-29T16:15:30.764Z,1.6
2024-02-29T16:20:30.798Z,1.5
2024-02-29T16:25:30.829Z,1.7
2024-02-29T16:30:30.718Z,4.0
2024-02-29T16:35:30.740Z,3.9
2024-02-29T16:40:30.758Z,3.3
2024-02-29T16:45:30.745Z,4.0
2024-02-29T16:50:30.712Z,2.6
2024-02-29T17:00:30.731Z,3.6
2024-02-29T17:05:30.762Z,2.1
2024-02-29T17:10:30.771Z,2.7
2024-02-29T17:15:30.690Z,2.3
2024-02-29T17:25:30.767Z,2.0
2024-02-29T17:40:30.664Z,2.1
2024-02-29T17:45:30.518Z,2.2
2024-02-29T17:50:31.858Z,3.2
2024-02-29T17:55:30.508Z,3.3
2024-02-29T18:00:30.348Z,3.9
2024-02-29T18:05:30.285Z,3.2
2024-02-29T18:10:30.417Z,3.7
2024-02-29T18:15:30.165Z,3.2
2024-02-29T18:20:30.095Z,4.2
2024-02-29T18:25:30.107Z,3.7
2024-02-29T18:30:29.944Z,3.8
2024-02-29T18:35:30.248Z,5.0
2024-02-29T18:40:29.921Z,3.9
2024-02-29T18:50:29.816Z,3.4
2024-02-29T18:55:29.911Z,3.8
2024-02-29T19:00:29.732Z,3.7
2024-02-29T19:05:29.688Z,5.3
2024-02-29T19:10:32.282Z,3.7
2024-02-29T19:15:29.517Z,3.6
2024-02-29T19:20:29.493Z,2.9
2024-02-29T19:25:29.596Z,3.9
2024-02-29T19:30:29.340Z,1.7
2024-02-29T19:35:29.315Z,3.5
2024-02-29T19:40:29.288Z,4.3
2024-02-29T19:45:29.172Z,3.9
2024-02-29T19:50:29.123Z,4.5
2024-02-29T19:55:29.125Z,5.0
2024-02-29T20:00:29.214Z,3.5
2024-02-29T20:10:28.852Z,3.0
2024-02-29T20:15:28.704Z,3.2
2024-02-29T20:20:28.635Z,2.2
2024-02-29T20:25:28.690Z,4.3
2024-02-29T20:30:28.561Z,3.4
2024-02-29T20:35:28.531Z,3.1
2024-02-29T20:40:28.505Z,3.5
2024-02-29T20:45:28.377Z,4.2
2024-02-29T20:50:28.299Z,2.5
2024-02-29T20:55:28.431Z,2.1
2024-02-29T21:00:28.212Z,1.9
2024-02-29T21:05:28.184Z,5.7
2024-02-29T21:10:28.241Z,8.8
2024-02-29T21:15:28.078Z,8.3
2024-02-29T21:20:28.033Z,4.7
2024-02-29T21:25:28.087Z,2.6
2024-02-29T21:30:27.913Z,3.7
2024-02-29T21:35:27.808Z,2.4
2024-02-29T21:40:27.794Z,2.2
2024-02-29T21:45:27.748Z,1.5
2024-02-29T21:50:27.629Z,2.8
2024-02-29T21:55:27.643Z,3.4
2024-02-29T22:00:27.428Z,1.7
2024-02-29T22:05:27.379Z,1.6
2024-02-29T22:10:27.487Z,1.3
2024-02-29T22:15:27.237Z,1.7
2024-02-29T22:20:27.116Z,1.4
2024-02-29T22:25:27.108Z,1.3
2024-02-29T22:30:26.990Z,1.4
2024-02-29T22:45:26.815Z,2.2
2024-02-29T22:50:26.706Z,1.7
2024-02-29T22:55:26.813Z,1.4
2024-02-29T23:00:26.460Z,2.0
2024-02-29T23:05:26.385Z,3.2
2024-02-29T23:10:26.278Z,0.9
2024-02-29T23:15:26.093Z,1.2
2024-02-29T23:20:25.966Z,1.4
2024-02-29T23:25:26.070Z,1.2
2024-02-29T23:30:25.737Z,2.1
2024-02-29T23:35:25.580Z,1.0
2024-02-29T23:40:25.433Z,1.2
2024-02-29T23:50:25.119Z,1.0
2024-02-29T23:55:25.029Z,0.8
